Time;durP1;ratioP1;P1;durP2;ratioP2;P2;SDS_P1;SDS_P2;PMS_P1;PMS_P2;Temp;Humidity;BMP_temperature;BMP_pressure;BME280_temperature;BME280_humidity;BME280_pressure;Samples;Min_cycle;Max_cycle;Signal;HPM_P1;HPM_P2
2022/01/09 00:00:50;;;;;;;38.00;19.50;;;1.70;99.90;;;;;;5028172;28;20230;-70
2022/01/09 00:03:17;;;;;;;39.87;20.13;;;1.70;99.90;;;;;;5037886;28;20249;-69
2022/01/09 00:05:44;;;;;;;35.57;18.30;;;1.70;99.90;;;;;;5032798;28;20214;-69
2022/01/09 00:08:11;;;;;;;33.03;18.67;;;1.70;99.90;;;;;;5037918;28;20313;-69
2022/01/09 00:10:45;;;;;;;36.30;19.27;;;1.70;99.90;;;;;;5031641;28;20202;-69
2022/01/09 00:13:13;;;;;;;30.27;17.40;;;1.70;99.90;;;;;;5031813;28;20276;-69
2022/01/09 00:15:41;;;;;;;33.43;18.47;;;1.70;99.90;;;;;;5031850;28;20210;-69
2022/01/09 00:18:08;;;;;;;36.80;18.60;;;1.60;99.90;;;;;;5035247;28;20715;-69
2022/01/09 00:20:35;;;;;;;35.17;17.93;;;1.60;99.90;;;;;;5031578;28;20625;-69
2022/01/09 00:23:02;;;;;;;36.57;19.03;;;1.80;99.90;;;;;;5034480;28;20198;-69
2022/01/09 00:25:30;;;;;;;35.33;18.43;;;1.60;99.90;;;;;;5033530;28;20218;-70
2022/01/09 00:27:57;;;;;;;36.87;19.10;;;1.60;99.90;;;;;;5048412;28;20596;-70
2022/01/09 00:30:26;;;;;;;31.97;17.03;;;1.70;99.90;;;;;;5041023;28;20211;-70
2022/01/09 00:32:53;;;;;;;33.43;17.77;;;1.70;99.90;;;;;;5032348;28;20686;-71
2022/01/09 00:35:20;;;;;;;33.60;18.23;;;1.70;99.90;;;;;;5033320;28;20745;-70
2022/01/09 00:37:47;;;;;;;34.50;18.77;;;1.70;99.90;;;;;;5031910;28;20234;-70
2022/01/09 00:40:16;;;;;;;36.20;19.83;;;1.70;99.90;;;;;;5029981;28;20480;-70
2022/01/09 00:42:43;;;;;;;37.37;19.53;;;1.60;99.90;;;;;;5031493;28;20700;-70
2022/01/09 00:45:12;;;;;;;34.57;19.57;;;1.60;99.90;;;;;;5031927;28;20222;-70
2022/01/09 00:47:40;;;;;;;35.50;19.87;;;1.60;99.90;;;;;;5031565;28;20252;-70
2022/01/09 00:50:08;;;;;;;34.30;19.63;;;1.60;99.90;;;;;;5045979;28;20203;-70
2022/01/09 00:52:36;;;;;;;39.50;20.47;;;1.70;99.90;;;;;;5032589;28;20215;-69
2022/01/09 00:55:03;;;;;;;39.50;20.20;;;1.70;99.90;;;;;;5032012;28;20290;-70
2022/01/09 00:57:30;;;;;;;41.27;21.83;;;1.70;99.90;;;;;;5031462;28;20253;-69
2022/01/09 00:59:57;;;;;;;36.73;20.50;;;1.60;99.90;;;;;;5032881;28;20556;-71
2022/01/09 01:02:24;;;;;;;38.63;20.90;;;1.60;99.90;;;;;;5032678;28;20314;-70
2022/01/09 01:04:52;;;;;;;37.73;19.83;;;1.60;99.90;;;;;;5032041;28;20298;-71
2022/01/09 01:07:20;;;;;;;43.23;21.37;;;1.60;99.90;;;;;;5037026;28;20229;-70
2022/01/09 01:09:47;;;;;;;42.57;21.03;;;1.60;99.90;;;;;;5040480;28;20221;-70
2022/01/09 01:12:14;;;;;;;39.30;21.13;;;1.60;99.90;;;;;;5031803;28;20229;-70
2022/01/09 01:14:41;;;;;;;41.87;20.40;;;1.60;99.90;;;;;;5032253;28;20207;-70
2022/01/09 01:17:09;;;;;;;41.23;21.27;;;1.60;99.90;;;;;;5032744;28;20202;-70
2022/01/09 01:19:36;;;;;;;41.47;20.90;;;1.60;99.90;;;;;;5033287;28;20203;-71
2022/01/09 01:22:05;;;;;;;38.30;20.13;;;1.60;99.90;;;;;;5033176;28;20210;-70
2022/01/09 01:24:35;;;;;;;38.97;21.53;;;1.60;99.90;;;;;;5026350;28;20202;-71
2022/01/09 01:27:02;;;;;;;42.80;20.83;;;1.50;99.90;;;;;;5041180;28;20233;-69
2022/01/09 01:29:29;;;;;;;39.53;19.80;;;1.60;99.90;;;;;;5036935;28;20573;-70
2022/01/09 01:31:56;;;;;;;43.23;21.87;;;1.60;99.90;;;;;;5036399;28;20218;-70
2022/01/09 01:34:23;;;;;;;40.73;21.90;;;1.60;99.90;;;;;;5036361;28;20290;-70
2022/01/09 01:36:50;;;;;;;42.30;20.33;;;1.60;99.90;;;;;;5030433;28;20226;-70
2022/01/09 01:39:18;;;;;;;44.57;21.43;;;1.50;99.90;;;;;;5046170;28;20209;-70
2022/01/09 01:41:45;;;;;;;43.73;20.90;;;1.50;99.90;;;;;;5035141;28;20207;-71
2022/01/09 01:44:13;;;;;;;46.73;22.63;;;1.50;99.90;;;;;;5035129;28;20214;-70
2022/01/09 01:46:40;;;;;;;46.00;22.27;;;1.50;99.90;;;;;;5035969;28;20206;-70
2022/01/09 01:49:10;;;;;;;39.50;20.70;;;1.50;99.90;;;;;;5035514;28;20274;-71
2022/01/09 01:51:39;;;;;;;42.53;21.67;;;1.50;99.90;;;;;;5037306;28;20790;-70
2022/01/09 01:54:08;;;;;;;41.57;21.50;;;1.50;99.90;;;;;;5047734;28;20214;-70
2022/01/09 01:56:37;;;;;;;41.30;21.97;;;1.50;99.90;;;;;;5035577;28;20360;-70
2022/01/09 01:59:05;;;;;;;42.47;21.70;;;1.50;99.90;;;;;;5035227;28;20206;-71
2022/01/09 02:01:35;;;;;;;42.47;23.20;;;1.50;99.90;;;;;;5036157;28;20237;-71
2022/01/09 02:04:03;;;;;;;43.33;23.57;;;1.40;99.90;;;;;;5035324;28;20199;-70
2022/01/09 02:06:30;;;;;;;40.70;22.57;;;1.40;99.90;;;;;;5034456;28;20213;-70
2022/01/09 02:08:57;;;;;;;43.73;22.67;;;1.40;99.90;;;;;;5034756;28;20601;-70
2022/01/09 02:11:24;;;;;;;43.37;22.03;;;1.30;99.90;;;;;;5035375;28;20217;-70
2022/01/09 02:13:53;;;;;;;43.93;21.63;;;1.30;99.90;;;;;;5035861;28;20297;-70
2022/01/09 02:16:19;;;;;;;41.77;22.10;;;1.30;99.90;;;;;;5045467;28;20246;-71
2022/01/09 02:18:48;;;;;;;42.47;21.27;;;1.20;99.90;;;;;;5040892;28;20241;-71
2022/01/09 02:21:17;;;;;;;40.17;21.47;;;1.20;99.90;;;;;;5035608;28;20499;-71
2022/01/09 02:23:46;;;;;;;41.90;22.43;;;1.20;99.90;;;;;;5034660;28;20210;-71
2022/01/09 02:26:17;;;;;;;42.77;21.17;;;1.10;99.90;;;;;;5041344;28;20210;-70
2022/01/09 02:28:45;;;;;;;44.40;22.47;;;1.10;99.90;;;;;;5044552;28;20310;-71
2022/01/09 02:31:12;;;;;;;42.13;23.13;;;1.10;99.90;;;;;;5034735;28;20203;-70
2022/01/09 02:33:39;;;;;;;44.23;23.07;;;1.00;99.90;;;;;;5034644;28;20720;-70
2022/01/09 02:36:05;;;;;;;44.13;22.13;;;1.00;99.90;;;;;;5040172;28;20210;-70
2022/01/09 02:38:34;;;;;;;41.27;21.37;;;1.00;99.90;;;;;;5033814;28;20226;-70
2022/01/09 02:41:01;;;;;;;43.80;22.23;;;1.00;99.90;;;;;;5037052;28;20209;-70
2022/01/09 02:43:28;;;;;;;39.90;20.90;;;1.00;99.90;;;;;;5040245;28;20217;-70
2022/01/09 02:46:04;;;;;;;43.43;22.30;;;1.00;99.90;;;;;;5050306;28;20255;-71
2022/01/09 02:48:34;;;;;;;43.53;22.00;;;1.00;99.90;;;;;;5039161;28;20279;-70
2022/01/09 02:51:06;;;;;;;41.87;20.80;;;0.90;99.90;;;;;;5044769;28;20711;-70
2022/01/09 02:53:36;;;;;;;40.97;21.30;;;1.00;99.90;;;;;;5034118;28;20202;-70
2022/01/09 02:56:04;;;;;;;34.43;19.87;;;1.00;99.90;;;;;;5034782;28;20199;-70
2022/01/09 02:58:32;;;;;;;40.03;20.60;;;1.00;99.90;;;;;;5036385;28;20213;-70
2022/01/09 03:01:00;;;;;;;39.20;20.67;;;0.90;99.90;;;;;;5035108;28;20568;-70
2022/01/09 03:03:27;;;;;;;37.07;20.17;;;0.90;99.90;;;;;;5034370;28;20214;-69
2022/01/09 03:05:54;;;;;;;42.40;20.03;;;0.90;99.90;;;;;;5034507;28;20818;-70
2022/01/09 03:08:21;;;;;;;41.53;20.33;;;0.90;99.90;;;;;;5033951;28;20226;-69
2022/01/09 03:10:49;;;;;;;37.93;19.67;;;0.90;99.90;;;;;;5034361;28;20609;-70
2022/01/09 03:13:16;;;;;;;38.20;20.03;;;0.90;99.90;;;;;;5034782;28;20225;-70
2022/01/09 03:15:43;;;;;;;32.93;19.30;;;0.90;99.90;;;;;;5033749;28;20297;-70
2022/01/09 03:18:12;;;;;;;37.23;20.17;;;0.90;99.90;;;;;;5034354;28;20197;-70
2022/01/09 03:20:39;;;;;;;40.40;18.93;;;0.90;99.90;;;;;;5033084;28;20202;-70
2022/01/09 03:23:06;;;;;;;37.63;19.53;;;0.90;99.90;;;;;;5033478;28;20220;-70
2022/01/09 03:25:34;;;;;;;37.97;20.00;;;0.90;99.90;;;;;;5032168;28;20206;-70
2022/01/09 03:28:03;;;;;;;36.97;20.00;;;0.90;99.90;;;;;;5032591;28;20572;-71
2022/01/09 03:30:30;;;;;;;36.57;19.77;;;0.90;99.90;;;;;;5047186;28;20213;-69
2022/01/09 03:32:57;;;;;;;37.83;19.13;;;0.90;99.90;;;;;;5039740;28;20245;-70
2022/01/09 03:35:26;;;;;;;36.77;19.60;;;0.80;99.90;;;;;;5047100;28;20203;-69
2022/01/09 03:37:53;;;;;;;33.80;19.43;;;0.80;99.90;;;;;;5032387;28;20241;-70
2022/01/09 03:40:24;;;;;;;36.80;19.73;;;0.90;99.90;;;;;;5031999;28;20218;-70
2022/01/09 03:42:52;;;;;;;38.37;20.10;;;0.80;99.90;;;;;;5047071;28;20207;-70
2022/01/09 03:45:21;;;;;;;34.47;19.53;;;1.00;99.90;;;;;;5032732;28;20264;-70
2022/01/09 03:47:48;;;;;;;38.93;19.67;;;0.90;99.90;;;;;;5033522;28;20233;-70
2022/01/09 03:50:16;;;;;;;35.37;19.10;;;0.90;99.90;;;;;;5047296;28;20209;-69
2022/01/09 03:52:43;;;;;;;34.60;18.80;;;0.80;99.90;;;;;;5043799;28;20214;-69
2022/01/09 03:55:12;;;;;;;40.43;19.10;;;0.90;99.90;;;;;;5037047;28;20741;-68
2022/01/09 03:57:40;;;;;;;40.57;19.57;;;1.00;99.90;;;;;;5042724;28;20246;-68
2022/01/09 04:00:11;;;;;;;36.40;20.07;;;1.00;99.90;;;;;;5032729;28;20224;-70
2022/01/09 04:02:39;;;;;;;37.30;19.53;;;1.00;99.90;;;;;;5033357;28;20202;-69
2022/01/09 04:05:07;;;;;;;37.43;19.20;;;0.90;99.90;;;;;;5032572;28;20217;-69
2022/01/09 04:07:35;;;;;;;36.97;18.50;;;1.00;99.90;;;;;;5031991;28;20297;-69
2022/01/09 04:10:02;;;;;;;37.77;19.03;;;0.90;99.90;;;;;;5031950;28;20207;-70
2022/01/09 04:12:35;;;;;;;34.83;18.37;;;0.90;99.90;;;;;;5038519;28;20205;-70
2022/01/09 04:15:05;;;;;;;31.43;18.47;;;0.80;99.90;;;;;;5039904;28;20253;-70
2022/01/09 04:17:42;;;;;;;36.23;18.67;;;0.80;99.90;;;;;;5036873;28;20197;-70
2022/01/09 04:20:12;;;;;;;33.33;18.10;;;0.70;99.90;;;;;;5052465;28;20206;-69
2022/01/09 04:22:40;;;;;;;34.47;19.13;;;0.70;99.90;;;;;;5038739;28;20208;-70
2022/01/09 04:25:07;;;;;;;35.17;18.90;;;0.60;99.90;;;;;;5033877;28;20672;-70
2022/01/09 04:27:35;;;;;;;37.60;19.27;;;0.60;99.90;;;;;;5031748;28;20213;-71
2022/01/09 04:30:02;;;;;;;34.00;18.07;;;0.50;99.90;;;;;;5041345;28;20647;-70
2022/01/09 04:32:29;;;;;;;34.03;18.97;;;0.50;99.90;;;;;;5039587;28;20206;-70
2022/01/09 04:34:56;;;;;;;34.07;18.43;;;0.50;99.90;;;;;;5050283;28;20301;-69
2022/01/09 04:37:25;;;;;;;33.03;19.00;;;0.50;99.90;;;;;;5044691;28;20603;-69
2022/01/09 04:39:53;;;;;;;37.57;19.43;;;0.50;99.90;;;;;;5043262;28;20640;-70
2022/01/09 04:42:24;;;;;;;35.67;18.77;;;0.40;99.90;;;;;;5052258;28;20214;-70
2022/01/09 04:44:51;;;;;;;36.60;18.60;;;0.40;99.90;;;;;;5051888;28;20213;-70
2022/01/09 04:47:18;;;;;;;37.37;20.07;;;0.40;99.90;;;;;;5053036;28;20222;-70
2022/01/09 04:49:47;;;;;;;39.20;19.57;;;0.40;99.90;;;;;;5038560;28;20697;-69
2022/01/09 04:52:17;;;;;;;37.50;19.13;;;0.40;99.90;;;;;;5032490;28;20214;-70
2022/01/09 04:54:47;;;;;;;40.27;19.70;;;0.40;99.90;;;;;;5032537;28;20210;-69
2022/01/09 04:57:14;;;;;;;34.30;18.77;;;0.40;99.90;;;;;;5034646;28;20647;-70
2022/01/09 04:59:41;;;;;;;36.70;19.33;;;0.30;99.90;;;;;;5032783;28;20637;-69
2022/01/09 05:02:08;;;;;;;34.90;19.00;;;0.30;99.90;;;;;;5048916;28;20207;-70
2022/01/09 05:04:35;;;;;;;40.47;19.77;;;0.30;99.90;;;;;;5036751;28;20212;-70
2022/01/09 05:07:02;;;;;;;35.40;19.33;;;0.30;99.90;;;;;;5041664;28;20301;-70
2022/01/09 05:09:29;;;;;;;38.07;18.93;;;0.30;99.90;;;;;;5035435;28;20230;-70
2022/01/09 05:11:57;;;;;;;41.17;19.30;;;0.30;99.90;;;;;;5035777;28;20217;-70
2022/01/09 05:14:24;;;;;;;38.93;18.93;;;0.30;99.90;;;;;;5036182;28;20213;-70
2022/01/09 05:16:51;;;;;;;38.10;19.03;;;0.30;99.90;;;;;;5036728;28;20210;-70
2022/01/09 05:19:20;;;;;;;37.23;19.03;;;0.30;99.90;;;;;;5049564;28;20233;-70
2022/01/09 05:21:48;;;;;;;38.70;19.57;;;0.30;99.90;;;;;;5036474;28;20210;-70
2022/01/09 05:24:16;;;;;;;41.97;19.53;;;0.30;99.90;;;;;;5035722;28;20322;-70
2022/01/09 05:26:43;;;;;;;36.60;19.60;;;0.50;99.90;;;;;;5035361;28;20209;-70
2022/01/09 05:29:11;;;;;;;43.67;20.17;;;0.40;99.90;;;;;;5036061;28;20238;-70
2022/01/09 05:31:38;;;;;;;37.63;18.80;;;0.40;99.90;;;;;;5035953;28;20686;-70
2022/01/09 05:34:05;;;;;;;33.47;18.80;;;0.40;99.90;;;;;;5036596;28;20559;-70
2022/01/09 05:36:32;;;;;;;39.80;18.80;;;0.30;99.90;;;;;;5039650;28;20325;-70
2022/01/09 05:38:59;;;;;;;36.07;19.67;;;0.30;99.90;;;;;;5034842;28;20289;-70
2022/01/09 05:41:26;;;;;;;36.53;19.33;;;0.50;99.90;;;;;;5054923;28;20293;-70
2022/01/09 05:43:53;;;;;;;39.77;20.43;;;0.30;99.90;;;;;;5043569;28;20660;-71
2022/01/09 05:46:21;;;;;;;40.47;19.07;;;0.20;99.90;;;;;;5036648;28;20202;-70
2022/01/09 05:48:48;;;;;;;33.73;19.23;;;0.20;99.90;;;;;;5050706;28;20229;-69
2022/01/09 05:51:15;;;;;;;38.03;18.30;;;0.20;99.90;;;;;;5042004;28;20217;-70
2022/01/09 05:53:42;;;;;;;38.47;19.07;;;0.20;99.90;;;;;;5032888;28;20205;-69
2022/01/09 05:56:09;;;;;;;36.53;18.43;;;0.20;99.90;;;;;;5029783;28;20230;-69
2022/01/09 05:58:36;;;;;;;33.93;18.83;;;0.10;99.90;;;;;;5035224;28;20281;-70
2022/01/09 06:01:04;;;;;;;39.23;18.83;;;0.10;99.90;;;;;;5035276;28;20306;-69
2022/01/09 06:03:32;;;;;;;41.67;20.27;;;0.10;99.90;;;;;;5034218;28;20273;-70
2022/01/09 06:05:59;;;;;;;43.03;20.20;;;0.10;99.90;;;;;;5032009;28;20220;-69
2022/01/09 06:08:27;;;;;;;35.83;18.30;;;0.10;99.90;;;;;;5040012;28;20337;-70
2022/01/09 06:10:54;;;;;;;36.20;18.73;;;0.00;99.90;;;;;;5035251;28;20650;-69
2022/01/09 06:13:20;;;;;;;36.63;18.40;;;0.00;99.90;;;;;;5045495;28;20202;-70
2022/01/09 06:15:47;;;;;;;37.10;20.23;;;0.10;99.90;;;;;;5035734;28;20569;-70
2022/01/09 06:18:18;;;;;;;34.90;17.83;;;0.00;99.90;;;;;;5040722;28;20244;-71
2022/01/09 06:20:46;;;;;;;35.27;18.67;;;0.00;99.90;;;;;;5047102;28;20203;-70
2022/01/09 06:23:13;;;;;;;35.47;19.70;;;0.20;99.90;;;;;;5044882;28;20220;-70
2022/01/09 06:25:41;;;;;;;32.20;18.40;;;0.10;99.90;;;;;;5038172;28;20298;-71
2022/01/09 06:28:09;;;;;;;39.63;19.17;;;0.00;99.90;;;;;;5033327;28;20580;-69
2022/01/09 06:30:39;;;;;;;34.67;18.60;;;0.00;99.90;;;;;;5034163;28;20679;-70
2022/01/09 06:33:06;;;;;;;35.00;17.47;;;0.00;99.90;;;;;;5034295;28;20207;-71
2022/01/09 06:35:33;;;;;;;33.63;19.43;;;0.00;99.90;;;;;;5039360;28;20210;-69
2022/01/09 06:38:01;;;;;;;34.53;19.50;;;0.00;99.90;;;;;;5035057;28;20231;-70
2022/01/09 06:40:28;;;;;;;38.27;19.87;;;0.00;99.90;;;;;;5034030;28;20294;-70
2022/01/09 06:42:55;;;;;;;36.20;18.03;;;0.00;99.90;;;;;;5033378;28;20294;-71
2022/01/09 06:45:24;;;;;;;39.93;18.83;;;0.00;99.90;;;;;;5034290;28;20206;-70
2022/01/09 06:47:52;;;;;;;38.37;18.93;;;0.10;99.90;;;;;;5048590;28;20670;-70
2022/01/09 06:50:19;;;;;;;36.07;19.53;;;0.10;99.90;;;;;;5048634;28;20237;-70
2022/01/09 06:52:46;;;;;;;38.70;19.77;;;0.10;99.90;;;;;;5034926;28;20305;-71
2022/01/09 06:55:15;;;;;;;36.93;18.30;;;0.10;99.90;;;;;;5037875;28;20205;-70
2022/01/09 06:57:42;;;;;;;39.63;18.37;;;0.10;99.90;;;;;;5025537;28;20233;-70
2022/01/09 07:00:11;;;;;;;39.67;19.53;;;0.20;99.90;;;;;;5033686;28;20642;-70
2022/01/09 07:02:38;;;;;;;35.43;19.13;;;0.10;99.90;;;;;;5033951;28;20648;-70
2022/01/09 07:05:06;;;;;;;37.97;19.40;;;0.10;99.90;;;;;;5034088;28;20215;-70
2022/01/09 07:07:33;;;;;;;42.50;19.47;;;0.00;99.90;;;;;;5044116;28;20203;-70
2022/01/09 07:10:00;;;;;;;40.83;19.67;;;0.00;99.90;;;;;;5046160;28;20344;-71
2022/01/09 07:12:28;;;;;;;38.10;19.83;;;0.10;99.90;;;;;;5043658;28;20241;-71
2022/01/09 07:14:55;;;;;;;37.47;19.93;;;0.00;99.90;;;;;;5044404;28;20289;-70
2022/01/09 07:17:22;;;;;;;38.47;18.97;;;0.00;99.90;;;;;;5048145;28;20520;-70
2022/01/09 07:19:49;;;;;;;37.83;19.57;;;-0.10;99.90;;;;;;5052999;28;20216;-70
2022/01/09 07:22:16;;;;;;;38.60;19.80;;;-0.10;99.90;;;;;;5044581;28;20202;-70
2022/01/09 07:24:43;;;;;;;38.33;20.20;;;0.00;99.90;;;;;;5048643;28;20743;-70
2022/01/09 07:27:09;;;;;;;40.20;21.57;;;-0.10;99.90;;;;;;5040505;28;20206;-71
2022/01/09 07:29:38;;;;;;;38.00;19.43;;;0.00;99.90;;;;;;5046656;28;20223;-72
2022/01/09 07:32:05;;;;;;;35.43;19.40;;;0.00;99.90;;;;;;5042272;28;20206;-71
2022/01/09 07:34:32;;;;;;;40.07;20.50;;;0.00;99.90;;;;;;5052846;28;20306;-71
2022/01/09 07:36:59;;;;;;;42.23;20.10;;;0.10;99.90;;;;;;5036359;28;20668;-71
2022/01/09 07:39:28;;;;;;;41.87;19.13;;;0.10;99.90;;;;;;5036120;28;20198;-71
2022/01/09 07:41:57;;;;;;;38.53;20.13;;;0.10;99.90;;;;;;5038845;28;20203;-72
2022/01/09 07:44:24;;;;;;;36.57;19.57;;;0.20;99.90;;;;;;5044076;28;20235;-71
2022/01/09 07:46:52;;;;;;;38.63;20.47;;;0.30;99.90;;;;;;5028194;28;20220;-71
2022/01/09 07:49:19;;;;;;;33.00;18.40;;;0.40;99.90;;;;;;5044402;28;20697;-72
2022/01/09 07:51:46;;;;;;;40.57;20.60;;;0.50;99.90;;;;;;5045182;28;20203;-71
2022/01/09 07:54:13;;;;;;;35.40;20.00;;;0.60;99.90;;;;;;5049438;28;20289;-72
2022/01/09 07:56:40;;;;;;;42.07;19.90;;;0.80;99.90;;;;;;5049805;28;20308;-72
2022/01/09 07:59:07;;;;;;;34.63;18.57;;;0.90;99.90;;;;;;5049433;28;20210;-73
2022/01/09 08:01:34;;;;;;;37.70;20.27;;;1.00;99.90;;;;;;5046007;28;20202;-71
2022/01/09 08:04:02;;;;;;;34.73;18.97;;;1.10;99.90;;;;;;5046781;28;20683;-74
2022/01/09 08:06:29;;;;;;;36.37;18.50;;;1.10;99.90;;;;;;5031308;28;21048;-73
2022/01/09 08:08:56;;;;;;;37.07;19.37;;;1.20;99.90;;;;;;5027769;28;20211;-71
2022/01/09 08:11:23;;;;;;;38.37;20.47;;;1.30;99.90;;;;;;5036065;28;20238;-71
2022/01/09 08:13:50;;;;;;;35.80;19.40;;;1.30;99.90;;;;;;5040527;28;20907;-72
2022/01/09 08:16:17;;;;;;;35.90;18.93;;;1.40;99.90;;;;;;5043565;28;20206;-73
2022/01/09 08:18:44;;;;;;;34.97;19.43;;;1.50;99.90;;;;;;5051411;28;20210;-71
2022/01/09 08:21:12;;;;;;;35.97;19.53;;;1.60;99.90;;;;;;5032213;28;20565;-71
2022/01/09 08:23:39;;;;;;;41.03;21.10;;;1.60;99.90;;;;;;5051220;28;20330;-68
2022/01/09 08:26:06;;;;;;;39.13;19.80;;;1.70;99.90;;;;;;5041630;28;20598;-70
2022/01/09 08:28:33;;;;;;;32.03;18.73;;;1.70;99.90;;;;;;5035105;28;20211;-73
2022/01/09 08:31:00;;;;;;;39.10;20.13;;;1.90;99.90;;;;;;5053267;28;20229;-71
2022/01/09 08:33:27;;;;;;;38.33;19.97;;;2.00;99.90;;;;;;5043541;28;20214;-72
2022/01/09 08:35:55;;;;;;;35.27;19.93;;;2.10;99.90;;;;;;5049835;28;20300;-71
2022/01/09 08:38:24;;;;;;;37.33;19.00;;;2.30;99.90;;;;;;5047730;28;20729;-72
2022/01/09 08:40:51;;;;;;;37.03;19.37;;;2.40;99.90;;;;;;5052973;28;20252;-74
2022/01/09 08:43:18;;;;;;;39.70;19.43;;;2.60;99.90;;;;;;5056001;28;20296;-75
2022/01/09 08:45:45;;;;;;;34.90;18.93;;;2.80;99.90;;;;;;5038544;28;20298;-73
2022/01/09 08:48:12;;;;;;;37.93;20.27;;;3.10;99.90;;;;;;5048620;28;20301;-74
2022/01/09 08:50:39;;;;;;;33.87;19.67;;;3.60;99.90;;;;;;5051442;28;20222;-74
2022/01/09 08:53:06;;;;;;;36.57;20.50;;;3.90;99.90;;;;;;5027910;28;20286;-75
2022/01/09 08:55:34;;;;;;;37.97;20.07;;;4.40;99.90;;;;;;5042420;28;20233;-67
2022/01/09 08:58:01;;;;;;;33.07;19.07;;;5.60;99.90;;;;;;5050974;28;20226;-66
2022/01/09 09:00:28;;;;;;;30.37;18.20;;;7.40;99.90;;;;;;5039469;28;20640;-67
2022/01/09 09:02:55;;;;;;;34.03;19.30;;;9.30;99.70;;;;;;5036635;28;20214;-71
2022/01/09 09:05:22;;;;;;;33.57;19.37;;;11.00;90.70;;;;;;5036399;28;20213;-68
2022/01/09 09:07:49;;;;;;;33.50;18.53;;;12.40;77.30;;;;;;5036088;28;20210;-68
2022/01/09 09:10:16;;;;;;;28.03;18.80;;;13.30;67.30;;;;;;5036779;28;20233;-69
2022/01/09 09:12:44;;;;;;;29.13;19.10;;;14.10;62.20;;;;;;5044205;28;20301;-73
2022/01/09 09:15:12;;;;;;;29.80;19.23;;;15.00;58.60;;;;;;5043390;28;20656;-68
2022/01/09 09:17:39;;;;;;;29.27;19.40;;;15.70;55.50;;;;;;5036088;28;20203;-71
2022/01/09 09:20:07;;;;;;;27.30;19.47;;;16.40;53.80;;;;;;5037524;28;20275;-73
2022/01/09 09:22:36;;;;;;;28.60;20.53;;;17.00;51.00;;;;;;5034511;28;20431;-72
2022/01/09 09:25:03;;;;;;;31.13;20.93;;;17.60;49.60;;;;;;5031796;28;20207;-67
2022/01/09 09:27:32;;;;;;;29.50;19.50;;;18.40;48.30;;;;;;5032630;28;20215;-74
2022/01/09 09:30:03;;;;;;;29.73;20.75;;;19.10;46.10;;;;;;5044865;28;20232;-74
2022/01/09 09:32:30;;;;;;;33.15;21.20;;;19.70;45.10;;;;;;5038645;28;20639;-71
2022/01/09 09:34:57;;;;;;;32.10;20.92;;;20.20;43.80;;;;;;5031709;28;20653;-72
2022/01/09 09:37:26;;;;;;;26.95;19.80;;;20.60;42.80;;;;;;5047131;28;20714;-77
2022/01/09 09:39:53;;;;;;;28.92;21.55;;;21.20;41.60;;;;;;5044864;28;20210;-76
2022/01/09 09:42:20;;;;;;;25.70;19.33;;;21.90;41.10;;;;;;5045967;28;20277;-75
2022/01/09 09:44:47;;;;;;;29.42;21.45;;;22.70;40.00;;;;;;5048756;28;20218;-70
2022/01/09 09:47:18;;;;;;;30.85;20.73;;;23.60;39.00;;;;;;5048450;28;20210;-72
2022/01/09 09:49:46;;;;;;;30.70;21.48;;;24.30;37.60;;;;;;5035444;28;20241;-72
2022/01/09 09:52:15;;;;;;;26.05;20.83;;;25.00;37.00;;;;;;5031188;28;20210;-73
2022/01/09 09:54:42;;;;;;;25.05;19.77;;;25.90;35.90;;;;;;5030568;28;20210;-71
2022/01/09 09:57:09;;;;;;;29.48;20.95;;;26.70;34.80;;;;;;5034796;28;20671;-73
2022/01/09 09:59:37;;;;;;;23.10;18.85;;;27.50;33.20;;;;;;5033531;28;20202;-70
2022/01/09 10:02:10;;;;;;;27.00;19.23;;;27.90;32.10;;;;;;5047254;28;20588;-70
2022/01/09 10:04:38;;;;;;;24.33;18.00;;;27.90;30.90;;;;;;5033347;28;20211;-73
2022/01/09 10:07:05;;;;;;;23.80;18.00;;;27.80;31.20;;;;;;5029384;28;20712;-71
2022/01/09 10:09:32;;;;;;;24.90;19.00;;;28.10;30.80;;;;;;5034564;28;20293;-74
2022/01/09 10:12:01;;;;;;;27.27;19.02;;;28.20;30.00;;;;;;5035061;28;20377;-71
2022/01/09 10:14:30;;;;;;;24.13;18.73;;;28.10;29.90;;;;;;5042699;28;20202;-71
2022/01/09 10:17:10;;;;;;;23.35;17.60;;;28.10;30.00;;;;;;5035020;28;20210;-74
2022/01/09 10:19:56;;;;;;;23.48;18.42;;;28.40;29.50;;;;;;5043624;28;20292;-73
2022/01/09 10:22:33;;;;;;;25.63;18.27;;;28.50;29.40;;;;;;5040986;28;20308;-72
2022/01/09 10:25:19;;;;;;;23.63;18.20;;;28.60;29.30;;;;;;5044871;28;20236;-73
2022/01/09 10:27:47;;;;;;;25.33;19.67;;;28.50;29.20;;;;;;5035342;28;20206;-75
2022/01/09 10:30:14;;;;;;;25.63;19.13;;;28.30;28.90;;;;;;5043442;28;20223;-74
2022/01/09 10:32:41;;;;;;;26.60;21.00;;;28.10;28.90;;;;;;5048983;28;20210;-73
2022/01/09 10:35:12;;;;;;;21.52;15.52;;;28.00;28.80;;;;;;5052898;28;20309;-75
2022/01/09 10:37:41;;;;;;;24.52;17.42;;;27.90;28.90;;;;;;5040595;28;20729;-70
2022/01/09 10:40:10;;;;;;;24.63;17.92;;;27.90;29.00;;;;;;5053174;28;20202;-71
2022/01/09 10:42:38;;;;;;;22.70;18.55;;;28.20;28.90;;;;;;5038347;28;20614;-71
2022/01/09 10:45:19;;;;;;;24.77;18.75;;;28.70;28.80;;;;;;5036125;28;20209;-72
2022/01/09 10:47:48;;;;;;;25.25;18.77;;;28.60;28.40;;;;;;5038631;28;20203;-72
2022/01/09 10:50:26;;;;;;;25.08;18.83;;;28.70;28.30;;;;;;5046548;28;20322;-72
2022/01/09 10:52:53;;;;;;;22.45;18.30;;;28.90;28.20;;;;;;5023183;28;20207;-71
2022/01/09 10:55:20;;;;;;;21.65;16.98;;;28.90;28.50;;;;;;5046669;28;20219;-72
2022/01/09 10:57:46;;;;;;;22.67;18.02;;;28.80;28.00;;;;;;5035355;28;20222;-71
2022/01/09 11:00:16;;;;;;;22.33;17.92;;;28.30;28.20;;;;;;5036382;28;20214;-72
2022/01/09 11:02:45;;;;;;;21.33;17.58;;;28.10;28.60;;;;;;5045735;28;20629;-73
2022/01/09 11:05:12;;;;;;;23.60;17.48;;;27.80;28.50;;;;;;5032452;28;20214;-73
2022/01/09 11:07:42;;;;;;;26.65;18.75;;;27.60;28.70;;;;;;5034319;28;20559;-71
2022/01/09 11:10:09;;;;;;;23.10;18.85;;;27.70;28.90;;;;;;5034114;28;20622;-73
2022/01/09 11:12:46;;;;;;;22.30;17.98;;;28.00;28.70;;;;;;5032536;28;20659;-73
2022/01/09 11:15:18;;;;;;;25.83;19.00;;;28.00;28.60;;;;;;5032771;28;20202;-72
2022/01/09 11:17:47;;;;;;;25.65;18.77;;;27.70;28.30;;;;;;5032277;28;20324;-73
2022/01/09 11:20:14;;;;;;;23.67;18.65;;;28.00;28.60;;;;;;5030213;28;20209;-73
2022/01/09 11:22:43;;;;;;;23.35;17.52;;;28.20;29.00;;;;;;5027631;28;20209;-73
2022/01/09 11:25:23;;;;;;;24.25;18.17;;;28.70;28.40;;;;;;5032779;28;20690;-71
2022/01/09 11:28:12;;;;;;;26.25;18.67;;;29.00;27.80;;;;;;5030791;28;20205;-72
2022/01/09 11:30:56;;;;;;;21.58;17.48;;;29.00;28.30;;;;;;5031415;28;20245;-73
2022/01/09 11:33:37;;;;;;;25.58;18.55;;;28.70;27.80;;;;;;5041628;28;20316;-72
2022/01/09 11:36:14;;;;;;;23.13;17.85;;;28.50;27.80;;;;;;5039940;28;20198;-73
2022/01/09 11:38:53;;;;;;;26.13;18.35;;;28.10;27.90;;;;;;5031985;28;20209;-72
2022/01/09 11:41:23;;;;;;;24.13;18.10;;;28.10;28.10;;;;;;5036866;28;20257;-73
2022/01/09 11:43:56;;;;;;;24.17;18.33;;;28.00;28.00;;;;;;5041353;28;20563;-72
2022/01/09 11:46:23;;;;;;;26.08;18.77;;;27.80;28.10;;;;;;5035999;28;20260;-73
2022/01/09 11:49:03;;;;;;;24.10;18.17;;;27.30;27.50;;;;;;5050754;28;20686;-73
2022/01/09 11:51:34;;;;;;;23.00;18.00;;;25.30;27.60;;;;;;5039042;28;20279;-73
2022/01/09 11:54:06;;;;;;;23.83;16.38;;;22.80;28.50;;;;;;5032575;28;20219;-72
2022/01/09 11:57:00;;;;;;;25.83;17.63;;;20.30;30.10;;;;;;5046183;28;20325;-72
2022/01/09 11:59:30;;;;;;;26.47;18.50;;;17.60;33.00;;;;;;5023140;28;20203;-72
2022/01/09 12:02:00;;;;;;;24.17;17.13;;;15.50;35.80;;;;;;5027541;28;20203;-73
2022/01/09 12:04:52;;;;;;;23.83;16.33;;;13.80;38.10;;;;;;5031508;28;20210;-72
2022/01/09 12:07:42;;;;;;;25.93;15.90;;;12.40;40.60;;;;;;5021842;28;20686;-72
2022/01/09 12:10:29;;;;;;;23.70;14.77;;;11.30;42.50;;;;;;5029458;28;20382;-72
2022/01/09 12:12:57;;;;;;;22.77;15.73;;;10.20;44.50;;;;;;5032235;28;20210;-71
2022/01/09 12:15:41;;;;;;;22.67;14.90;;;9.50;46.70;;;;;;5031209;28;20614;-72
2022/01/09 12:18:29;;;;;;;23.70;14.60;;;8.90;48.50;;;;;;5041889;28;20205;-72
2022/01/09 12:20:56;;;;;;;24.10;15.60;;;8.30;50.50;;;;;;5032243;28;20207;-73
2022/01/09 12:23:24;;;;;;;24.03;15.20;;;7.80;51.30;;;;;;5040064;28;20740;-71
2022/01/09 12:25:56;;;;;;;21.17;14.20;;;7.40;52.40;;;;;;5030808;28;20206;-71
2022/01/09 12:28:44;;;;;;;26.20;15.17;;;7.00;53.30;;;;;;5030761;28;20570;-72
2022/01/09 12:31:22;;;;;;;21.97;14.37;;;6.80;54.00;;;;;;5030428;28;20674;-72
2022/01/09 12:33:53;;;;;;;23.93;13.80;;;6.30;55.20;;;;;;5031785;28;20207;-71
2022/01/09 12:36:33;;;;;;;25.03;14.03;;;6.20;56.10;;;;;;5036969;28;20690;-72
2022/01/09 12:39:03;;;;;;;20.37;11.90;;;6.00;57.40;;;;;;5030755;28;20285;-71
2022/01/09 12:41:36;;;;;;;19.53;11.77;;;5.80;57.30;;;;;;5016785;28;20215;-72